Clayton Lake, Maine
Current Conditions -  °F | °C
As of 9:55 PM on Monday 22 Dec 2014 (Local Time) from KPQI Reporting Station
Overcast Overcast  
Wind Chill: 17°   Ceiling: 4000
Heat Index: 27°   Visibility: 10mi
Dew Point: 21°   Wind: 9mph
Humidity: 80%   Direction: 160°SSE
Pressure: 30.38"   Gusts: NA
Location:  46.61°N, 69.52°W
Report Text: KPQI 230255Z AUTO 16008KT 10SM OVC040 M03/M06 A3038 RMK AO1 57003
Loading
Personal Weather Stations






























Interactive Weather Map New forecast layout! Learn more

10-Day Weather Forecast

Advertisements
Track Severe Weather on mobile